Time;durP1;ratioP1;P1;durP2;ratioP2;P2;SDS_P1;SDS_P2;PMS_P1;PMS_P2;Temp;Humidity;BMP_temperature;BMP_pressure;BME280_temperature;BME280_humidity;BME280_pressure;Samples;Min_cycle;Max_cycle;Signal;HPM_P1;HPM_P2
2022/01/03 00:01:44;;;;;;;5.50;2.97;;;10.70;99.90;;;11.62;100.00;-20122.28;5013409;28;20222;-67
2022/01/03 00:04:15;;;;;;;2.77;2.57;;;10.60;99.90;;;11.73;100.00;-20126.22;5013655;28;20178;-68
2022/01/03 00:06:44;;;;;;;4.33;2.50;;;10.70;99.90;;;11.54;100.00;-20119.56;5005159;28;20237;-66
2022/01/03 00:09:13;;;;;;;8.73;3.07;;;10.70;99.90;;;11.45;100.00;-20116.66;4993688;28;20239;-68
2022/01/03 00:11:45;;;;;;;3.70;2.47;;;10.70;99.90;;;11.44;100.00;-20116.31;5012749;28;20233;-65
2022/01/03 00:14:13;;;;;;;4.53;2.60;;;10.70;99.90;;;11.23;100.00;-20109.13;5013096;28;20265;-64
2022/01/03 00:16:41;;;;;;;6.20;2.93;;;10.60;99.90;;;11.12;100.00;-20105.22;5013169;28;20240;-64
2022/01/03 00:19:10;;;;;;;7.47;2.70;;;10.40;99.90;;;11.03;100.00;-20102.31;5013032;28;20214;-64
2022/01/03 00:21:46;;;;;;;6.10;3.03;;;10.30;99.90;;;10.71;100.00;-20091.56;5013844;28;20202;-64
2022/01/03 00:24:17;;;;;;;4.50;2.50;;;10.20;99.90;;;10.75;100.00;-20092.75;5013013;28;20305;-64
2022/01/03 00:26:57;;;;;;;4.13;2.50;;;10.10;99.90;;;10.61;100.00;-20087.97;5013179;28;20317;-65
2022/01/03 00:29:30;;;;;;;3.30;1.77;;;9.90;99.90;;;10.56;100.00;-20086.25;5012883;28;20313;-64
2022/01/03 00:31:59;;;;;;;1.73;1.27;;;9.80;99.90;;;10.40;100.00;-20080.78;5012741;28;20714;-65
2022/01/03 00:34:34;;;;;;;3.40;1.50;;;9.70;99.90;;;10.25;100.00;-20075.84;5012114;28;20209;-65
2022/01/03 00:37:06;;;;;;;3.70;1.30;;;9.60;99.90;;;9.99;100.00;-20066.78;5013722;28;20233;-65
2022/01/03 00:39:34;;;;;;;1.60;0.90;;;9.40;99.90;;;9.79;100.00;-20060.28;5013032;28;20601;-64
2022/01/03 00:42:04;;;;;;;1.00;0.83;;;9.20;99.90;;;9.58;100.00;-20053.13;5012782;28;20227;-67
2022/01/03 00:44:32;;;;;;;1.07;0.97;;;9.10;99.90;;;9.52;100.00;-20050.91;4997191;28;20285;-66
2022/01/03 00:47:01;;;;;;;1.10;0.77;;;8.90;99.90;;;9.59;100.00;-20053.44;4992970;28;20234;-65
2022/01/03 00:49:30;;;;;;;0.93;0.80;;;8.90;99.90;;;9.48;100.00;-20049.53;4993128;28;20260;-67
2022/01/03 00:51:58;;;;;;;2.03;0.73;;;8.80;99.90;;;9.30;100.00;-20043.38;4993490;28;20601;-66
2022/01/03 00:54:27;;;;;;;0.90;0.70;;;8.70;99.90;;;9.34;100.00;-20044.91;4992803;28;20249;-67
2022/01/03 00:57:04;;;;;;;1.20;0.70;;;8.60;99.90;;;9.19;100.00;-20039.78;5012554;28;20284;-65
2022/01/03 00:59:42;;;;;;;1.73;0.70;;;8.60;99.90;;;9.24;100.00;-20041.50;5012624;28;20232;-67
2022/01/03 01:02:14;;;;;;;1.10;0.77;;;8.50;99.90;;;9.25;100.00;-20041.66;5010215;28;20226;-66
2022/01/03 01:04:46;;;;;;;1.20;0.80;;;8.50;99.90;;;9.34;100.00;-20044.75;4993065;28;20257;-66
2022/01/03 01:07:17;;;;;;;0.60;0.60;;;8.50;99.90;;;9.10;100.00;-20036.72;5005496;28;20622;-65
2022/01/03 01:09:51;;;;;;;2.47;0.53;;;8.50;99.90;;;9.07;100.00;-20035.69;5013049;28;20699;-65
2022/01/03 01:12:20;;;;;;;1.43;0.70;;;8.40;99.90;;;9.19;100.00;-20039.78;5012548;28;20229;-66
2022/01/03 01:14:51;;;;;;;0.50;0.50;;;8.40;99.90;;;9.18;100.00;-20039.44;5012693;28;20306;-66
2022/01/03 01:17:19;;;;;;;1.27;0.60;;;8.50;99.90;;;9.18;100.00;-20039.44;5012514;28;20222;-65
2022/01/03 01:19:47;;;;;;;1.57;0.70;;;8.50;99.90;;;9.16;100.00;-20038.59;5012194;28;20254;-65
2022/01/03 01:22:16;;;;;;;0.77;0.50;;;8.50;99.90;;;9.18;100.00;-20039.28;5012381;28;20203;-65
2022/01/03 01:24:50;;;;;;;1.17;0.40;;;8.50;99.90;;;9.27;100.00;-20042.53;5012886;28;20230;-66
2022/01/03 01:30:05;;;;;;;0.80;0.50;;;8.60;99.90;;;9.42;100.00;-20047.47;5011859;28;20234;-64
2022/01/03 01:32:34;;;;;;;2.43;0.40;;;8.60;99.90;;;9.22;100.00;-20040.81;5012068;28;20223;-65
2022/01/03 01:35:02;;;;;;;0.70;0.60;;;8.60;99.90;;;9.24;100.00;-20041.31;5011756;28;20653;-65
2022/01/03 01:37:31;;;;;;;1.13;0.50;;;8.60;99.90;;;9.19;100.00;-20039.78;5011947;28;20309;-64
2022/01/03 01:40:01;;;;;;;1.40;0.50;;;8.60;99.90;;;9.20;100.00;-20039.97;5012283;28;20301;-64
2022/01/03 01:42:32;;;;;;;1.50;0.50;;;8.50;99.90;;;9.20;100.00;-20040.13;5011952;28;20261;-65
2022/01/03 01:45:07;;;;;;;0.60;0.40;;;8.50;99.90;;;8.93;100.00;-20030.91;4992651;28;20235;-66
2022/01/03 01:47:41;;;;;;;1.17;0.50;;;8.40;99.90;;;8.95;100.00;-20031.59;4996241;28;20239;-66
2022/01/03 01:50:11;;;;;;;1.60;0.60;;;8.40;99.90;;;8.91;100.00;-20030.06;4995984;28;20231;-65
2022/01/03 01:52:39;;;;;;;2.60;0.50;;;8.30;99.90;;;9.06;100.00;-20035.34;4996359;28;20269;-65
2022/01/03 01:55:12;;;;;;;1.67;0.60;;;8.30;99.90;;;8.91;100.00;-20030.22;5002244;28;20227;-68
2022/01/03 01:57:55;;;;;;;2.40;0.80;;;8.30;99.90;;;9.07;100.00;-20035.69;5016073;28;20214;-68
2022/01/03 02:00:27;;;;;;;0.50;0.50;;;8.30;99.90;;;8.99;100.00;-20032.78;5015120;28;20254;-65
2022/01/03 02:03:13;;;;;;;0.80;0.60;;;8.30;99.90;;;8.88;100.00;-20029.03;5015750;28;20246;-66
2022/01/03 02:05:43;;;;;;;1.83;0.67;;;8.30;99.90;;;8.90;100.00;-20029.88;5015719;28;20309;-66
2022/01/03 02:08:17;;;;;;;1.47;0.77;;;8.30;99.90;;;9.19;100.00;-20039.78;5015529;28;20284;-65
2022/01/03 02:10:58;;;;;;;1.97;0.60;;;8.30;99.90;;;9.49;100.00;-20050.03;5015487;28;20313;-66
2022/01/03 02:13:27;;;;;;;2.73;0.80;;;8.50;99.90;;;9.49;100.00;-20049.88;5015317;28;20286;-66
2022/01/03 02:16:03;;;;;;;1.93;0.70;;;8.60;99.90;;;9.56;100.00;-20052.44;5015073;28;20760;-65
2022/01/03 02:18:33;;;;;;;1.17;0.70;;;8.70;99.90;;;9.69;100.00;-20056.69;5015239;28;20226;-65
2022/01/03 02:21:04;;;;;;;0.80;0.70;;;8.80;99.90;;;9.33;100.00;-20044.41;5015015;28;20309;-66
2022/01/03 02:23:33;;;;;;;0.70;0.67;;;8.80;99.90;;;9.37;100.00;-20045.94;5015258;28;20230;-66
2022/01/03 02:26:02;;;;;;;0.87;0.70;;;8.70;99.90;;;9.30;100.00;-20043.38;5015231;28;20310;-65
2022/01/03 02:28:30;;;;;;;1.40;0.60;;;8.70;99.90;;;9.28;100.00;-20042.88;5015220;28;20321;-66
2022/01/03 02:30:58;;;;;;;0.93;0.70;;;8.60;99.90;;;9.44;100.00;-20048.31;5015289;28;20627;-66
2022/01/03 02:33:26;;;;;;;1.27;0.60;;;8.70;99.90;;;9.48;100.00;-20049.53;5014878;28;20321;-65
2022/01/03 02:35:54;;;;;;;0.60;0.60;;;8.60;99.90;;;9.46;100.00;-20048.84;5014568;28;20235;-65
2022/01/03 02:38:23;;;;;;;0.90;0.60;;;8.70;99.90;;;9.21;100.00;-20040.47;5014717;28;20223;-66
2022/01/03 02:40:51;;;;;;;1.97;0.77;;;8.60;99.90;;;9.47;100.00;-20049.34;5014439;28;20753;-66
2022/01/03 02:43:19;;;;;;;2.07;0.70;;;8.60;99.90;;;9.41;100.00;-20047.31;5008595;28;20295;-65
2022/01/03 02:45:47;;;;;;;0.60;0.60;;;8.70;99.90;;;9.42;100.00;-20047.66;4995081;28;20243;-65
2022/01/03 02:48:16;;;;;;;0.97;0.60;;;8.70;99.90;;;9.29;100.00;-20043.03;4994778;28;20238;-66
2022/01/03 02:50:44;;;;;;;3.80;0.80;;;8.60;99.90;;;9.26;100.00;-20042.00;4995238;28;20310;-65
2022/01/03 02:53:12;;;;;;;2.37;0.60;;;8.60;99.90;;;9.41;100.00;-20047.31;4995187;28;20587;-66
2022/01/03 02:55:41;;;;;;;1.70;0.70;;;8.60;99.90;;;9.30;100.00;-20043.53;5005184;28;20284;-65
2022/01/03 02:58:09;;;;;;;0.90;0.80;;;8.60;99.90;;;9.36;100.00;-20045.59;5013837;28;20199;-66
2022/01/03 03:00:45;;;;;;;0.73;0.60;;;8.50;99.90;;;9.40;100.00;-20046.97;5014946;28;20206;-65
2022/01/03 03:03:14;;;;;;;0.87;0.60;;;8.60;99.90;;;9.56;100.00;-20052.25;5014262;28;20240;-65
2022/01/03 03:05:42;;;;;;;0.50;0.50;;;8.70;99.90;;;9.52;100.00;-20050.91;5014399;28;20233;-67
2022/01/03 03:08:13;;;;;;;1.10;0.70;;;8.70;99.90;;;9.62;100.00;-20054.47;5014032;28;20754;-65
2022/01/03 03:10:43;;;;;;;1.07;0.97;;;8.70;99.90;;;9.68;100.00;-20056.53;5014466;28;20249;-65
2022/01/03 03:13:11;;;;;;;1.73;0.60;;;8.80;99.90;;;9.70;100.00;-20057.22;5014051;28;20293;-65
2022/01/03 03:15:39;;;;;;;3.13;0.90;;;8.80;99.90;;;9.93;100.00;-20064.72;5014540;28;20289;-64
2022/01/03 03:18:09;;;;;;;1.83;0.90;;;8.90;99.90;;;9.79;100.00;-20060.13;5013930;28;20320;-65
2022/01/03 03:20:38;;;;;;;0.93;0.80;;;9.00;99.90;;;9.64;100.00;-20055.16;5014122;28;20244;-65
2022/01/03 03:23:06;;;;;;;1.10;0.73;;;8.90;99.90;;;9.72;100.00;-20057.72;5013897;28;20234;-65
2022/01/03 03:25:36;;;;;;;2.30;0.60;;;8.90;99.90;;;9.59;100.00;-20053.44;5013831;28;20258;-66
2022/01/03 03:28:09;;;;;;;2.20;0.70;;;8.80;99.90;;;9.60;100.00;-20053.78;5014498;28;20226;-66
2022/01/03 03:30:41;;;;;;;1.03;0.70;;;8.80;99.90;;;9.53;100.00;-20051.41;5013838;28;20262;-65
2022/01/03 03:33:14;;;;;;;2.47;0.87;;;8.80;99.90;;;9.59;100.00;-20053.44;5013526;28;20690;-65
2022/01/03 03:35:44;;;;;;;2.70;0.90;;;8.70;99.90;;;9.53;100.00;-20051.41;5013670;28;20594;-64
2022/01/03 03:38:13;;;;;;;1.93;0.80;;;8.70;99.90;;;9.56;100.00;-20052.25;5013485;28;20318;-65
2022/01/03 03:40:45;;;;;;;2.07;0.90;;;8.70;99.90;;;9.53;100.00;-20051.41;5013508;28;20218;-66
2022/01/03 03:43:18;;;;;;;1.33;0.90;;;8.80;99.90;;;9.89;100.00;-20063.53;5013158;28;20198;-64
2022/01/03 03:45:48;;;;;;;2.07;0.90;;;8.90;99.90;;;9.79;100.00;-20060.28;5014002;28;20186;-58
2022/01/03 03:48:16;;;;;;;2.30;1.20;;;8.90;99.90;;;9.95;100.00;-20065.41;5013246;28;20226;-61
2022/01/03 03:50:46;;;;;;;1.87;1.10;;;9.00;99.90;;;9.94;100.00;-20065.06;5013406;28;20226;-59
2022/01/03 03:53:16;;;;;;;3.80;1.07;;;9.00;99.90;;;10.01;100.00;-20067.63;5012880;28;20293;-60
2022/01/03 03:55:45;;;;;;;2.87;1.10;;;9.10;99.90;;;10.04;100.00;-20068.47;5013327;28;20210;-64
2022/01/03 03:58:14;;;;;;;2.60;0.90;;;9.10;99.90;;;10.14;100.00;-20071.91;5013203;28;20293;-59
2022/01/03 04:00:43;;;;;;;2.97;1.17;;;9.20;99.90;;;10.23;100.00;-20075.16;5012309;28;20277;-59
2022/01/03 04:03:31;;;;;;;1.53;1.13;;;9.30;99.90;;;10.28;100.00;-20076.69;5012381;28;20206;-60
2022/01/03 04:06:00;;;;;;;2.20;1.10;;;9.30;99.90;;;10.45;100.00;-20082.66;5013153;28;20265;-60
2022/01/03 04:08:28;;;;;;;1.50;1.30;;;9.40;99.90;;;10.27;100.00;-20076.34;5012903;28;20234;-60
2022/01/03 04:10:56;;;;;;;3.40;1.30;;;9.40;99.90;;;10.12;100.00;-20071.22;5013147;28;20222;-60
2022/01/03 04:13:25;;;;;;;1.83;1.30;;;9.30;99.90;;;10.17;100.00;-20072.94;5013066;28;20291;-59
2022/01/03 04:15:53;;;;;;;1.73;1.00;;;9.30;99.90;;;10.16;100.00;-20072.75;5013448;28;20246;-59
2022/01/03 04:18:21;;;;;;;2.13;1.20;;;9.30;99.90;;;10.32;100.00;-20078.06;5012841;28;20321;-59
2022/01/03 04:20:49;;;;;;;2.97;1.30;;;9.30;99.90;;;10.29;100.00;-20077.19;5012970;28;20318;-59
2022/01/03 04:23:17;;;;;;;1.90;1.03;;;9.40;99.90;;;10.45;100.00;-20082.50;5012889;28;20234;-60
2022/01/03 04:25:45;;;;;;;4.07;1.20;;;9.50;99.90;;;10.27;100.00;-20076.53;5013035;28;20309;-59
2022/01/03 04:28:14;;;;;;;4.60;1.40;;;9.40;99.90;;;10.13;100.00;-20071.72;5012993;28;20217;-59
2022/01/03 04:30:43;;;;;;;1.93;1.40;;;9.40;99.90;;;9.96;100.00;-20065.94;5013273;28;20309;-59
2022/01/03 04:33:11;;;;;;;2.70;1.20;;;9.20;99.90;;;9.81;100.00;-20060.97;5012539;28;20250;-59
2022/01/03 04:35:40;;;;;;;2.50;1.40;;;9.10;99.90;;;9.78;100.00;-20059.78;5012951;28;20313;-60
2022/01/03 04:38:08;;;;;;;3.83;1.70;;;9.10;99.90;;;9.96;100.00;-20065.94;5012762;28;20237;-59
2022/01/03 04:40:40;;;;;;;4.50;1.40;;;9.10;99.90;;;9.92;100.00;-20064.38;5012566;28;20646;-60
2022/01/03 04:43:08;;;;;;;1.97;1.40;;;9.10;99.90;;;10.01;100.00;-20067.47;5012985;28;20202;-59
2022/01/03 04:45:36;;;;;;;4.80;1.37;;;9.10;99.90;;;9.92;100.00;-20064.56;5012649;28;20222;-60
2022/01/03 04:48:06;;;;;;;1.80;1.30;;;9.10;99.90;;;9.84;100.00;-20061.81;5002791;28;20257;-60
2022/01/03 04:50:35;;;;;;;2.47;1.50;;;9.10;99.90;;;9.69;100.00;-20056.88;4992897;28;20314;-61
2022/01/03 04:53:03;;;;;;;3.03;1.20;;;9.00;99.90;;;9.66;100.00;-20055.84;4992754;28;20247;-59
2022/01/03 04:55:31;;;;;;;2.33;1.53;;;9.00;99.90;;;9.68;100.00;-20056.53;5001084;28;20720;-59
2022/01/03 04:58:00;;;;;;;1.63;1.40;;;8.90;99.90;;;9.62;100.00;-20054.31;5012968;28;20242;-60
2022/01/03 05:00:28;;;;;;;3.37;1.30;;;8.90;99.90;;;9.52;100.00;-20050.91;5012161;28;20234;-61
2022/01/03 05:03:00;;;;;;;2.67;1.20;;;8.80;99.90;;;9.30;100.00;-20043.53;5012260;28;20304;-61
2022/01/03 05:05:29;;;;;;;3.30;1.40;;;8.70;99.90;;;9.27;100.00;-20042.34;5012266;28;20226;-60
2022/01/03 05:07:57;;;;;;;4.33;1.20;;;8.60;99.90;;;9.35;100.00;-20045.09;5012225;28;20246;-60
2022/01/03 05:10:25;;;;;;;2.00;1.33;;;8.60;99.90;;;9.08;100.00;-20036.03;5012228;28;20564;-59
2022/01/03 05:12:53;;;;;;;4.13;1.53;;;8.50;99.90;;;8.90;100.00;-20029.88;5012817;28;20207;-60
2022/01/03 05:15:22;;;;;;;2.70;1.50;;;8.40;99.90;;;8.85;100.00;-20028.16;5011848;28;20327;-60
2022/01/03 05:17:50;;;;;;;4.90;1.60;;;8.20;99.90;;;8.95;100.00;-20031.59;5012133;28;20254;-60
2022/01/03 05:20:18;;;;;;;2.03;1.33;;;8.20;99.90;;;9.02;100.00;-20033.97;5011324;28;20601;-65
2022/01/03 05:22:47;;;;;;;3.70;1.70;;;8.20;99.90;;;9.14;100.00;-20037.91;5012367;28;20246;-65
2022/01/03 05:25:15;;;;;;;2.00;1.50;;;8.30;99.90;;;8.99;100.00;-20032.97;5011775;28;20213;-65
2022/01/03 05:27:44;;;;;;;2.50;1.37;;;8.30;99.90;;;8.89;100.00;-20029.53;5012446;28;20758;-64
2022/01/03 05:30:13;;;;;;;2.83;1.50;;;8.20;99.90;;;8.78;100.00;-20025.78;5011536;28;20663;-65
2022/01/03 05:32:41;;;;;;;4.73;1.30;;;8.10;99.90;;;8.87;100.00;-20028.84;5011710;28;20253;-65
2022/01/03 05:35:10;;;;;;;1.90;1.60;;;8.20;99.90;;;8.75;100.00;-20024.75;5011953;28;20644;-65
2022/01/03 05:37:38;;;;;;;3.73;2.03;;;8.10;99.90;;;8.69;100.00;-20022.72;5011953;28;20277;-65
2022/01/03 05:40:11;;;;;;;2.83;1.50;;;8.10;99.90;;;8.66;100.00;-20021.69;5012164;28;20210;-65
2022/01/03 05:42:40;;;;;;;2.30;1.50;;;8.00;99.90;;;8.79;100.00;-20026.13;5011723;28;20240;-66
2022/01/03 05:45:10;;;;;;;4.40;1.83;;;8.00;99.90;;;8.54;100.00;-20017.75;4991755;28;20693;-65
2022/01/03 05:47:39;;;;;;;3.07;1.97;;;7.90;99.90;;;8.57;100.00;-20018.59;4992069;28;20306;-65
2022/01/03 05:50:08;;;;;;;5.47;1.80;;;8.00;99.90;;;8.63;100.00;-20020.81;4992078;28;20274;-65
2022/01/03 05:52:36;;;;;;;4.30;1.80;;;8.00;99.90;;;8.52;100.00;-20016.91;5007673;28;20233;-65
2022/01/03 05:55:06;;;;;;;3.60;1.73;;;7.90;99.90;;;8.63;100.00;-20020.66;5011684;28;20325;-63
2022/01/03 05:57:35;;;;;;;3.47;1.60;;;7.90;99.90;;;8.77;100.00;-20025.44;5011262;28;20245;-64
2022/01/03 06:00:06;;;;;;;3.03;1.80;;;8.00;99.90;;;8.77;100.00;-20025.44;5011292;28;20233;-65
2022/01/03 06:02:39;;;;;;;5.10;2.60;;;8.00;99.90;;;8.85;100.00;-20028.16;5011351;28;20774;-65
2022/01/03 06:05:10;;;;;;;7.57;2.67;;;8.10;99.90;;;8.89;100.00;-20029.38;5011624;28;20226;-66
2022/01/03 06:07:38;;;;;;;3.10;2.50;;;8.10;99.90;;;8.86;100.00;-20028.34;5011419;28;20889;-65
2022/01/03 06:10:10;;;;;;;3.77;3.17;;;8.20;99.90;;;8.84;100.00;-20027.66;5011612;28;20254;-64
2022/01/03 06:12:39;;;;;;;4.07;3.00;;;8.10;99.90;;;8.89;100.00;-20029.53;5011885;28;20203;-65
2022/01/03 06:15:08;;;;;;;4.03;2.90;;;8.10;99.90;;;8.99;100.00;-20032.97;5011129;28;20237;-65
2022/01/03 06:17:36;;;;;;;3.77;2.40;;;8.30;99.90;;;9.02;100.00;-20033.97;5011371;28;20233;-65
2022/01/03 06:20:06;;;;;;;5.27;2.30;;;8.30;99.90;;;9.22;100.00;-20040.81;5011356;28;20257;-65
2022/01/03 06:22:34;;;;;;;3.50;2.03;;;8.40;99.90;;;9.13;100.00;-20037.56;5011349;28;20715;-65
2022/01/03 06:25:02;;;;;;;4.70;2.07;;;8.50;99.90;;;9.32;100.00;-20044.06;5011984;28;20207;-66
2022/01/03 06:27:30;;;;;;;4.53;2.47;;;8.50;99.90;;;9.43;100.00;-20047.81;5011244;28;20258;-66
2022/01/03 06:29:59;;;;;;;3.30;2.00;;;8.60;99.90;;;9.30;100.00;-20043.53;5011084;28;20231;-66
2022/01/03 06:32:27;;;;;;;6.10;2.17;;;8.60;99.90;;;9.36;100.00;-20045.59;5012296;28;20269;-65
2022/01/03 06:34:55;;;;;;;4.87;2.07;;;8.60;99.90;;;9.49;100.00;-20050.03;5015245;28;20302;-65
2022/01/03 06:37:23;;;;;;;6.67;1.80;;;8.70;99.90;;;9.34;100.00;-20044.75;5015036;28;20646;-66
2022/01/03 06:39:51;;;;;;;4.47;1.90;;;8.60;99.90;;;9.26;100.00;-20042.19;5015138;28;20211;-59
2022/01/03 06:42:20;;;;;;;3.97;1.67;;;8.50;99.90;;;9.16;100.00;-20038.59;5014771;28;20242;-60
2022/01/03 06:44:48;;;;;;;4.33;1.93;;;8.50;99.90;;;9.03;100.00;-20034.31;5014688;28;20714;-59
2022/01/03 06:47:18;;;;;;;4.23;1.93;;;8.40;99.90;;;8.91;100.00;-20030.22;5014183;28;20218;-60
2022/01/03 06:49:46;;;;;;;4.30;1.70;;;8.40;99.90;;;8.92;100.00;-20030.56;5014608;28;20318;-60
2022/01/03 06:52:14;;;;;;;3.50;1.50;;;8.30;99.90;;;9.08;100.00;-20035.84;5014713;28;20214;-59
2022/01/03 06:54:43;;;;;;;6.43;1.73;;;8.30;99.90;;;9.00;100.00;-20033.13;5014137;28;20715;-59
2022/01/03 06:57:12;;;;;;;3.53;1.67;;;8.30;99.90;;;9.19;100.00;-20039.63;5014308;28;20302;-58
2022/01/03 06:59:40;;;;;;;3.87;1.50;;;8.40;99.90;;;9.29;100.00;-20043.03;5014260;28;20226;-59
2022/01/03 07:02:08;;;;;;;3.57;1.57;;;8.50;99.90;;;9.24;100.00;-20041.50;5013930;28;20305;-59
2022/01/03 07:04:38;;;;;;;4.83;1.43;;;8.40;99.90;;;9.48;100.00;-20049.53;5014118;28;20246;-59
2022/01/03 07:07:06;;;;;;;3.57;1.80;;;8.50;99.90;;;9.31;100.00;-20043.88;5014412;28;20297;-59
2022/01/03 07:09:35;;;;;;;5.27;1.43;;;8.50;99.90;;;9.21;100.00;-20040.31;5014526;28;20254;-59
2022/01/03 07:12:03;;;;;;;4.70;1.80;;;8.50;99.90;;;9.28;100.00;-20042.88;5014552;28;20277;-59
2022/01/03 07:20:09;;;;;;;3.83;1.73;;;8.40;99.90;;;9.19;100.00;-20039.78;5014036;28;20258;-60
2022/01/03 07:22:40;;;;;;;4.37;1.60;;;8.40;99.90;;;9.05;100.00;-20035.00;5014711;28;20301;-59
2022/01/03 07:25:09;;;;;;;5.37;1.97;;;8.40;99.90;;;9.21;100.00;-20040.31;5014352;28;20646;-60
2022/01/03 07:27:37;;;;;;;3.73;1.77;;;8.40;99.90;;;9.20;100.00;-20039.97;5013511;28;20249;-59
2022/01/03 07:30:07;;;;;;;4.83;2.33;;;8.40;99.90;;;8.99;100.00;-20032.78;5013163;28;20687;-59
2022/01/03 07:32:35;;;;;;;3.73;1.50;;;8.30;99.90;;;9.05;100.00;-20035.00;5013325;28;20622;-58
2022/01/03 07:35:06;;;;;;;4.27;1.60;;;8.30;99.90;;;8.97;100.00;-20032.09;5012983;28;20232;-59
2022/01/03 07:37:35;;;;;;;4.60;1.50;;;8.20;99.90;;;9.11;100.00;-20037.06;5013303;28;20306;-60
2022/01/03 07:40:04;;;;;;;4.90;2.30;;;8.30;99.90;;;8.99;100.00;-20032.97;5014494;28;20232;-59
2022/01/03 07:42:33;;;;;;;4.63;1.97;;;8.20;99.90;;;9.00;100.00;-20033.28;5013158;28;20670;-60
2022/01/03 07:45:01;;;;;;;6.83;2.10;;;8.20;99.90;;;8.89;100.00;-20029.38;5012950;28;20257;-60
2022/01/03 07:47:29;;;;;;;6.60;1.90;;;8.20;99.90;;;8.86;100.00;-20028.34;5013063;28;20323;-60
2022/01/03 07:49:57;;;;;;;4.10;1.60;;;8.10;99.90;;;8.96;100.00;-20031.75;5012923;28;20222;-58
2022/01/03 07:52:27;;;;;;;5.77;1.90;;;8.10;99.90;;;8.99;100.00;-20032.97;5013254;28;20253;-59
2022/01/03 07:54:55;;;;;;;4.27;1.90;;;8.20;99.90;;;9.30;100.00;-20043.38;5013374;28;20227;-59
2022/01/03 07:57:23;;;;;;;5.70;1.77;;;8.30;99.90;;;9.45;100.00;-20048.50;5013096;28;20317;-59
2022/01/03 07:59:51;;;;;;;5.07;1.47;;;8.40;99.90;;;9.61;100.00;-20054.13;5012694;28;20589;-59
2022/01/03 08:02:19;;;;;;;4.33;1.80;;;8.60;99.90;;;9.57;100.00;-20052.59;5012540;28;20226;-59
2022/01/03 08:04:48;;;;;;;4.90;1.70;;;8.60;99.90;;;9.45;100.00;-20048.66;5012942;28;20228;-59
2022/01/03 08:07:16;;;;;;;7.53;2.33;;;8.60;99.90;;;9.49;100.00;-20050.03;5013246;28;20294;-60
2022/01/03 08:09:45;;;;;;;5.63;1.93;;;8.60;99.90;;;9.48;100.00;-20049.69;5013582;28;20195;-59
2022/01/03 08:12:14;;;;;;;9.80;2.00;;;8.60;99.90;;;9.49;100.00;-20049.88;5012752;28;20706;-59
2022/01/03 08:14:42;;;;;;;7.80;1.90;;;8.60;99.90;;;9.46;100.00;-20049.00;5012995;28;20241;-58
2022/01/03 08:17:10;;;;;;;6.57;1.90;;;8.70;99.90;;;9.70;100.00;-20057.03;5012207;28;20307;-59
2022/01/03 08:19:38;;;;;;;7.90;1.90;;;8.80;99.90;;;9.80;100.00;-20060.47;5010475;28;20651;-59
2022/01/03 08:22:06;;;;;;;5.23;1.90;;;8.80;99.90;;;9.67;100.00;-20056.19;5013174;28;20201;-59
2022/01/03 08:24:34;;;;;;;6.20;1.67;;;8.90;99.90;;;9.61;100.00;-20053.97;5012823;28;20293;-60
2022/01/03 08:27:04;;;;;;;4.37;1.60;;;8.80;99.90;;;9.61;100.00;-20053.97;5013135;28;20231;-59
2022/01/03 08:29:32;;;;;;;5.70;1.50;;;8.80;99.90;;;9.56;100.00;-20052.44;5013070;28;20222;-60
2022/01/03 08:32:00;;;;;;;5.33;2.10;;;8.80;99.90;;;9.59;100.00;-20053.28;5012243;28;20230;-59
2022/01/03 08:34:28;;;;;;;4.13;1.93;;;8.80;99.90;;;9.61;100.00;-20053.97;5012748;28;20209;-62
2022/01/03 08:36:59;;;;;;;6.57;1.77;;;8.80;99.90;;;9.79;100.00;-20060.13;5011716;28;20218;-61
2022/01/03 08:39:28;;;;;;;8.30;1.93;;;8.90;99.90;;;9.75;100.00;-20058.75;5006310;28;20340;-61
2022/01/03 08:41:56;;;;;;;6.40;1.73;;;8.90;99.90;;;9.72;100.00;-20057.88;5008475;28;20306;-62
2022/01/03 08:44:26;;;;;;;8.53;1.80;;;8.90;99.90;;;9.82;100.00;-20061.13;4993563;28;20231;-60
2022/01/03 08:46:54;;;;;;;3.83;1.50;;;9.00;99.90;;;9.88;100.00;-20063.19;4988314;28;20936;-61
2022/01/03 08:49:22;;;;;;;5.53;1.73;;;9.00;99.90;;;9.99;100.00;-20066.94;4989087;28;20192;-60
2022/01/03 08:51:50;;;;;;;6.27;1.80;;;9.10;99.90;;;9.89;100.00;-20063.53;4989414;28;20273;-61
2022/01/03 08:54:18;;;;;;;4.13;2.00;;;9.10;99.90;;;10.05;100.00;-20069.00;4988187;28;20703;-60
2022/01/03 08:56:46;;;;;;;7.03;1.87;;;9.10;99.90;;;10.05;100.00;-20069.00;5007258;28;20580;-59
2022/01/03 08:59:14;;;;;;;4.77;1.90;;;9.20;99.90;;;10.40;100.00;-20080.78;5007326;28;20586;-59
2022/01/03 09:01:44;;;;;;;5.80;1.93;;;9.40;99.90;;;10.62;100.00;-20088.31;5007311;28;20229;-60
2022/01/03 09:04:12;;;;;;;5.40;1.93;;;9.50;99.90;;;10.45;100.00;-20082.50;5008255;28;20286;-60
2022/01/03 09:06:40;;;;;;;5.33;1.60;;;9.60;99.90;;;10.29;100.00;-20077.03;5008475;28;20218;-59
2022/01/03 09:09:08;;;;;;;8.77;2.23;;;9.50;99.90;;;10.06;100.00;-20069.16;5008245;28;20226;-60
2022/01/03 09:11:36;;;;;;;5.20;2.30;;;9.40;99.90;;;10.12;100.00;-20071.22;5007856;28;20235;-57
2022/01/03 09:14:04;;;;;;;6.53;2.53;;;9.30;99.90;;;10.14;100.00;-20071.91;5007929;28;20254;-57
2022/01/03 09:16:32;;;;;;;5.47;2.10;;;9.20;99.90;;;9.89;100.00;-20063.53;5008226;28;20222;-54
2022/01/03 09:19:02;;;;;;;5.47;2.40;;;9.10;99.90;;;9.85;100.00;-20062.34;5008824;28;20198;-57
2022/01/03 09:21:30;;;;;;;5.27;2.00;;;9.10;99.90;;;10.04;100.00;-20068.66;5008029;28;20316;-54
2022/01/03 09:24:19;;;;;;;5.40;1.77;;;9.10;99.90;;;10.17;100.00;-20072.94;5007843;28;20321;-58
2022/01/03 09:29:34;;;;;;;5.97;2.30;;;9.30;99.90;;;10.41;100.00;-20081.13;5006483;28;20230;-61
2022/01/03 09:32:02;;;;;;;5.23;2.07;;;9.50;99.90;;;10.40;100.00;-20080.78;5008075;28;20325;-60
2022/01/03 09:34:31;;;;;;;4.63;1.70;;;9.50;99.90;;;10.35;100.00;-20079.09;5007921;28;20265;-63
2022/01/03 09:37:02;;;;;;;5.77;2.17;;;9.50;99.90;;;10.36;100.00;-20079.41;5008285;28;20207;-62
2022/01/03 09:39:30;;;;;;;7.87;2.20;;;9.60;99.90;;;10.48;100.00;-20083.53;5007820;28;20276;-59
2022/01/03 09:42:05;;;;;;;4.27;1.60;;;9.60;99.90;;;10.56;100.00;-20086.25;5007625;28;20246;-59
2022/01/03 09:44:35;;;;;;;8.53;2.10;;;9.60;99.90;;;10.85;100.00;-20096.16;5007492;28;20232;-59
2022/01/03 09:47:06;;;;;;;7.70;2.63;;;9.80;99.90;;;10.69;100.00;-20090.69;5006869;28;20337;-59
2022/01/03 09:49:38;;;;;;;9.00;2.23;;;9.80;99.90;;;10.79;100.00;-20094.13;5007153;28;20284;-58
2022/01/03 09:52:08;;;;;;;4.37;1.80;;;9.80;99.90;;;10.67;100.00;-20090.00;5007374;28;20202;-58
2022/01/03 09:54:38;;;;;;;4.33;2.00;;;9.80;99.90;;;10.77;100.00;-20093.44;5006413;28;20325;-58
2022/01/03 09:57:08;;;;;;;6.10;1.80;;;9.80;99.90;;;10.72;100.00;-20091.88;5006768;28;20635;-59
2022/01/03 09:59:37;;;;;;;6.57;1.70;;;9.80;99.90;;;10.68;100.00;-20090.53;5006547;28;20262;-59
2022/01/03 10:02:06;;;;;;;4.43;1.57;;;9.80;99.90;;;10.43;100.00;-20081.81;5006653;28;20230;-59
2022/01/03 10:04:38;;;;;;;8.60;1.80;;;9.70;99.90;;;10.29;100.00;-20077.19;5007000;28;20226;-59
2022/01/03 10:07:11;;;;;;;4.43;1.50;;;9.60;99.90;;;10.42;100.00;-20081.47;5009595;28;20298;-60
2022/01/03 10:09:40;;;;;;;2.80;1.33;;;9.60;99.90;;;10.48;100.00;-20083.69;5010859;28;20203;-60
2022/01/03 10:12:12;;;;;;;6.80;1.90;;;9.60;99.90;;;10.89;100.00;-20097.53;5010636;28;20250;-60
2022/01/03 10:14:40;;;;;;;5.33;1.60;;;9.70;99.90;;;11.00;100.00;-20101.28;5011000;28;20222;-60
2022/01/03 10:17:11;;;;;;;5.80;1.90;;;9.90;99.90;;;11.41;100.00;-20115.13;5010090;28;20260;-60
2022/01/03 10:20:00;;;;;;;6.13;1.80;;;10.20;99.90;;;11.53;100.00;-20119.22;5010432;28;20265;-60
2022/01/03 10:22:31;;;;;;;5.23;1.47;;;10.30;99.90;;;11.61;100.00;-20121.94;5009821;28;20199;-59
2022/01/03 10:25:09;;;;;;;7.73;2.10;;;10.50;99.90;;;11.59;100.00;-20121.25;5010465;28;20293;-59
2022/01/03 10:27:52;;;;;;;5.73;1.40;;;10.50;99.90;;;11.43;100.00;-20115.97;5010609;28;20688;-60
2022/01/03 10:30:33;;;;;;;8.60;2.27;;;10.40;99.90;;;11.14;100.00;-20106.06;5009541;28;20687;-60
2022/01/03 10:33:03;;;;;;;5.63;1.60;;;10.40;99.90;;;11.38;100.00;-20114.25;5009861;28;20639;-60
2022/01/03 10:35:40;;;;;;;4.67;1.47;;;10.30;99.90;;;11.26;100.00;-20110.16;5009913;28;20309;-59
2022/01/03 10:38:09;;;;;;;5.00;1.73;;;10.30;99.90;;;11.45;100.00;-20116.66;5010178;28;20269;-60
2022/01/03 10:40:39;;;;;;;5.47;1.50;;;10.40;99.90;;;11.54;100.00;-20119.56;5009460;28;20234;-59